createdAt,value
2023-03-11T00:00:00.236Z,81.91
2023-03-11T00:02:30.918Z,81.93
2023-03-11T00:05:01.629Z,81.87
2023-03-11T00:07:32.390Z,81.90
2023-03-11T00:10:03.020Z,82.03
2023-03-11T00:12:33.674Z,82.02
2023-03-11T00:15:04.684Z,81.92
2023-03-11T00:17:33.778Z,81.97
2023-03-11T00:20:05.363Z,82.10
2023-03-11T00:22:36.097Z,82.11
2023-03-11T00:25:10.031Z,82.03
2023-03-11T00:27:40.898Z,82.16
2023-03-11T00:30:14.852Z,82.12
2023-03-11T00:32:47.076Z,82.22
2023-03-11T00:35:19.610Z,82.26
2023-03-11T00:37:53.619Z,82.38
2023-03-11T00:40:27.209Z,82.50
2023-03-11T00:42:58.162Z,82.36
2023-03-11T00:45:27.742Z,82.49
2023-03-11T00:47:58.711Z,82.64
2023-03-11T00:50:28.892Z,82.61
2023-03-11T00:53:00.671Z,82.72
2023-03-11T00:55:33.517Z,82.82
2023-03-11T00:58:07.037Z,82.76
2023-03-11T01:00:37.683Z,82.68
2023-03-11T01:03:08.749Z,82.83
2023-03-11T01:05:39.675Z,82.68
2023-03-11T01:08:10.302Z,82.76
2023-03-11T01:10:40.972Z,82.78
2023-03-11T01:13:11.613Z,82.84
2023-03-11T01:15:42.588Z,82.83
2023-03-11T01:18:11.696Z,83.06
2023-03-11T01:20:42.381Z,83.05
2023-03-11T01:23:14.974Z,83.08
2023-03-11T01:25:45.702Z,83.06
2023-03-11T01:28:16.402Z,83.17
2023-03-11T01:30:47.065Z,83.24
2023-03-11T01:33:19.694Z,83.14
2023-03-11T01:35:50.430Z,83.12
2023-03-11T01:38:21.221Z,83.35
2023-03-11T01:40:53.006Z,83.30
2023-03-11T01:43:47.655Z,83.26
2023-03-11T01:46:21.644Z,83.23
2023-03-11T01:48:53.791Z,83.36
2023-03-11T01:51:28.455Z,83.39
2023-03-11T01:54:03.879Z,83.45
2023-03-11T01:56:35.575Z,83.37
2023-03-11T01:59:08.838Z,83.64
2023-03-11T02:01:43.934Z,83.63
2023-03-11T02:04:15.481Z,83.70
2023-03-11T02:06:46.339Z,83.63
2023-03-11T02:09:17.081Z,83.82
2023-03-11T02:11:47.788Z,83.49
2023-03-11T02:14:19.437Z,83.30
2023-03-11T02:16:50.142Z,83.03
2023-03-11T02:19:32.154Z,83.15
2023-03-11T02:22:03.246Z,83.25
2023-03-11T02:24:42.538Z,83.07
2023-03-11T02:27:16.531Z,83.13
2023-03-11T02:29:49.680Z,83.31
2023-03-11T02:32:21.294Z,83.44
2023-03-11T02:34:51.973Z,83.52
2023-03-11T02:37:22.641Z,83.44
2023-03-11T02:39:54.651Z,83.46
2023-03-11T02:42:28.822Z,83.40
2023-03-11T02:45:03.752Z,83.61
2023-03-11T02:47:37.647Z,83.16
2023-03-11T02:50:18.022Z,82.14
2023-03-11T02:52:49.877Z,81.66
2023-03-11T02:55:21.130Z,81.28
2023-03-11T02:57:50.316Z,81.26
2023-03-11T03:00:23.192Z,81.53
2023-03-11T03:02:53.916Z,82.02
2023-03-11T03:05:24.780Z,82.22
2023-03-11T03:07:55.841Z,82.40
2023-03-11T03:10:31.973Z,82.33
2023-03-11T03:13:02.702Z,82.04
2023-03-11T03:15:33.498Z,82.27
2023-03-11T03:18:04.265Z,82.20
2023-03-11T03:20:35.539Z,82.05
2023-03-11T03:23:06.247Z,82.23
2023-03-11T03:25:36.925Z,82.26
2023-03-11T03:28:07.950Z,82.23
2023-03-11T03:30:37.224Z,81.78
2023-03-11T03:33:08.281Z,81.59
2023-03-11T03:35:40.423Z,81.75
2023-03-11T03:38:11.436Z,81.49
2023-03-11T03:40:47.864Z,81.56
2023-03-11T03:43:18.544Z,81.79
2023-03-11T03:45:56.956Z,81.57
2023-03-11T03:48:28.237Z,81.57
2023-03-11T03:51:05.096Z,81.57
2023-03-11T03:53:36.987Z,80.97
2023-03-11T03:56:10.866Z,80.82
2023-03-11T03:58:41.581Z,80.79
2023-03-11T04:01:12.885Z,80.70
2023-03-11T04:03:44.043Z,80.92
2023-03-11T04:06:19.440Z,80.92
2023-03-11T04:08:50.647Z,80.67
2023-03-11T04:11:21.784Z,80.61
2023-03-11T04:13:50.912Z,80.59
2023-03-11T04:16:23.841Z,80.19
2023-03-11T04:18:54.604Z,80.24
2023-03-11T04:21:25.327Z,80.77
2023-03-11T04:23:55.948Z,80.40
2023-03-11T04:26:27.536Z,80.86
2023-03-11T04:28:58.209Z,80.81
2023-03-11T04:31:29.115Z,80.90
2023-03-11T04:33:59.752Z,80.51
2023-03-11T04:36:30.493Z,80.50
2023-03-11T04:39:01.123Z,80.47
2023-03-11T04:41:31.779Z,80.79
2023-03-11T04:44:02.389Z,81.02
2023-03-11T04:46:33.294Z,81.16
2023-03-11T04:49:03.958Z,80.95
2023-03-11T04:51:34.736Z,80.85
2023-03-11T04:54:05.740Z,80.84
2023-03-11T04:56:34.908Z,81.02
2023-03-11T04:59:05.548Z,81.10
2023-03-11T05:01:36.304Z,81.22
2023-03-11T05:04:07.170Z,81.36
2023-03-11T05:06:37.837Z,81.57
2023-03-11T05:09:08.506Z,81.70
2023-03-11T05:11:39.193Z,81.96
2023-03-11T05:14:09.782Z,81.91
2023-03-11T05:16:40.444Z,82.06
2023-03-11T05:19:11.116Z,82.08
2023-03-11T05:21:41.825Z,82.14
2023-03-11T05:24:12.843Z,82.16
2023-03-11T05:26:43.681Z,82.05
2023-03-11T05:29:14.343Z,82.00
2023-03-11T05:31:45.016Z,81.83
2023-03-11T05:34:16.030Z,81.93
2023-03-11T05:36:46.809Z,81.89
2023-03-11T05:39:17.425Z,82.20
2023-03-11T05:41:48.711Z,82.29
2023-03-11T05:44:19.321Z,82.28
2023-03-11T05:46:50.176Z,82.37
2023-03-11T05:49:20.889Z,82.72
2023-03-11T05:51:52.525Z,82.63
2023-03-11T05:54:23.160Z,83.02
2023-03-11T05:56:53.823Z,82.94
2023-03-11T05:59:24.936Z,82.89
2023-03-11T06:01:55.684Z,83.62
2023-03-11T06:04:26.526Z,83.45
2023-03-11T06:06:57.287Z,83.61
2023-03-11T06:09:28.524Z,83.84
2023-03-11T06:11:59.321Z,83.82
2023-03-11T06:14:30.047Z,83.70
2023-03-11T06:17:00.904Z,84.24
2023-03-11T06:19:31.572Z,83.91
2023-03-11T06:22:03.012Z,84.08
2023-03-11T06:24:33.690Z,83.87
2023-03-11T06:27:04.662Z,83.74
2023-03-11T06:29:35.341Z,83.97
2023-03-11T06:32:06.685Z,83.69
2023-03-11T06:34:37.314Z,83.60
2023-03-11T06:37:08.008Z,83.81
2023-03-11T06:39:38.649Z,83.56
2023-03-11T06:42:12.887Z,83.87
2023-03-11T06:44:43.537Z,83.73
2023-03-11T06:47:14.264Z,83.88
2023-03-11T06:49:44.943Z,84.32
2023-03-11T06:52:15.708Z,84.43
2023-03-11T06:54:46.762Z,84.06
2023-03-11T06:57:16.186Z,84.05
2023-03-11T06:59:46.828Z,84.13
2023-03-11T07:02:17.699Z,83.82
2023-03-11T07:04:50.781Z,83.90
2023-03-11T07:07:21.762Z,83.88
2023-03-11T07:09:54.525Z,83.56
2023-03-11T07:12:25.440Z,83.90
2023-03-11T07:14:58.815Z,83.53
2023-03-11T07:17:29.636Z,83.91
2023-03-11T07:20:00.621Z,84.03
2023-03-11T07:22:30.079Z,84.00
2023-03-11T07:25:00.808Z,83.79
2023-03-11T07:27:32.006Z,83.49
2023-03-11T07:30:04.331Z,83.60
2023-03-11T07:32:35.046Z,83.73
2023-03-11T07:35:08.661Z,83.52
2023-03-11T07:37:39.455Z,83.36
2023-03-11T07:40:13.162Z,83.11
2023-03-11T07:42:43.830Z,83.03
2023-03-11T07:45:15.325Z,82.74
2023-03-11T07:47:46.263Z,82.81
2023-03-11T07:50:19.545Z,82.37
2023-03-11T07:52:50.319Z,81.98
2023-03-11T07:55:21.565Z,82.13
2023-03-11T07:57:52.389Z,81.47
2023-03-11T08:00:23.607Z,81.33
2023-03-11T08:02:54.275Z,81.60
2023-03-11T08:05:25.234Z,81.61
2023-03-11T08:07:56.029Z,81.67
2023-03-11T08:10:26.911Z,81.44
2023-03-11T08:12:57.690Z,80.95
2023-03-11T08:15:28.334Z,80.89
2023-03-11T08:17:59.268Z,81.31
2023-03-11T08:20:30.014Z,81.32
2023-03-11T08:23:00.853Z,81.03
2023-03-11T08:25:31.822Z,81.02
2023-03-11T08:28:01.154Z,80.68
2023-03-11T08:30:33.386Z,80.90
2023-03-11T08:33:08.041Z,80.90
2023-03-11T08:35:39.006Z,80.96
2023-03-11T08:38:10.169Z,80.41
2023-03-11T08:40:41.117Z,80.34
2023-03-11T08:43:14.593Z,80.54
2023-03-11T08:45:45.658Z,80.05
2023-03-11T08:48:16.342Z,79.68
2023-03-11T08:50:53.955Z,79.70
2023-03-11T08:53:25.784Z,79.80
2023-03-11T08:55:56.658Z,79.14
2023-03-11T08:58:27.492Z,78.59
2023-03-11T09:00:58.180Z,78.56
2023-03-11T09:03:30.715Z,78.01
2023-03-11T09:06:03.154Z,78.12
2023-03-11T09:08:34.730Z,77.87
2023-03-11T09:11:04.109Z,77.72
2023-03-11T09:13:35.370Z,78.66
2023-03-11T09:16:07.464Z,78.00
2023-03-11T09:18:38.191Z,77.58
2023-03-11T09:21:09.678Z,77.35
2023-03-11T09:23:42.884Z,77.49
2023-03-11T09:26:15.150Z,77.82
2023-03-11T09:28:44.402Z,76.22
2023-03-11T09:31:15.268Z,77.03
2023-03-11T09:33:46.851Z,76.59
2023-03-11T09:36:19.322Z,76.98
2023-03-11T09:38:50.501Z,76.31
2023-03-11T09:41:33.903Z,76.38
2023-03-11T09:44:16.149Z,76.47
2023-03-11T09:47:34.422Z,77.23
2023-03-11T09:50:33.705Z,77.46
2023-03-11T09:53:17.888Z,78.09
2023-03-11T09:55:52.264Z,78.04
2023-03-11T09:58:31.828Z,78.31
2023-03-11T10:01:03.409Z,78.47
2023-03-11T10:03:39.356Z,78.27
2023-03-11T10:06:22.081Z,77.51
2023-03-11T10:09:02.835Z,77.35
2023-03-11T10:11:53.306Z,77.48
2023-03-11T10:14:37.744Z,76.99
2023-03-11T10:17:19.613Z,75.67
2023-03-11T10:19:59.609Z,76.33
2023-03-11T10:22:40.436Z,76.44
2023-03-11T10:25:16.667Z,76.08
2023-03-11T10:27:51.984Z,76.08
2023-03-11T10:30:29.610Z,76.73
2023-03-11T10:33:06.397Z,75.71
2023-03-11T10:35:40.884Z,75.79
2023-03-11T10:38:19.032Z,75.20
2023-03-11T10:40:53.726Z,75.56
2023-03-11T10:43:29.126Z,75.63
2023-03-11T10:46:00.286Z,75.51
2023-03-11T10:48:30.996Z,75.40
2023-03-11T10:51:11.118Z,75.06
2023-03-11T10:53:49.777Z,73.50
2023-03-11T10:56:32.715Z,73.77
2023-03-11T10:59:05.874Z,74.10
2023-03-11T11:01:36.590Z,73.57
2023-03-11T11:04:28.198Z,73.63
2023-03-11T11:07:19.091Z,72.76
2023-03-11T11:10:13.619Z,73.43
2023-03-11T11:12:54.776Z,71.98
2023-03-11T11:15:28.762Z,69.33
2023-03-11T11:18:02.238Z,70.21
2023-03-11T11:20:34.029Z,70.87
2023-03-11T11:23:05.671Z,69.80
2023-03-11T11:25:38.173Z,70.63
2023-03-11T11:28:18.261Z,68.57
2023-03-11T11:30:57.176Z,69.45
2023-03-11T11:33:30.976Z,69.68
2023-03-11T11:36:04.819Z,68.10
2023-03-11T11:38:35.985Z,68.23
2023-03-11T11:41:05.599Z,69.29
2023-03-11T11:43:46.389Z,69.39
2023-03-11T11:46:22.603Z,70.14
2023-03-11T11:49:02.683Z,69.92
2023-03-11T11:51:36.566Z,69.57
2023-03-11T11:54:16.692Z,69.34
2023-03-11T11:56:47.604Z,70.44
2023-03-11T11:59:20.961Z,70.18
2023-03-11T12:02:04.395Z,70.17
2023-03-11T12:04:46.738Z,71.12
2023-03-11T12:07:39.349Z,71.17
2023-03-11T12:10:24.153Z,70.68
2023-03-11T12:13:18.266Z,70.24
2023-03-11T12:15:53.834Z,68.95
2023-03-11T12:18:31.455Z,69.65
2023-03-11T12:21:09.961Z,69.31
2023-03-11T12:23:55.038Z,69.16
2023-03-11T12:26:28.091Z,68.68
2023-03-11T12:29:02.995Z,69.29
2023-03-11T12:31:38.223Z,68.95
2023-03-11T12:34:13.477Z,69.34
2023-03-11T12:36:46.288Z,67.53
2023-03-11T12:39:24.605Z,67.39
2023-03-11T12:42:21.599Z,66.02
2023-03-11T12:44:52.612Z,65.75
2023-03-11T12:47:23.100Z,66.44
2023-03-11T12:49:55.607Z,66.80
2023-03-11T12:52:28.463Z,66.96
2023-03-11T12:55:34.831Z,65.50
2023-03-11T12:58:32.286Z,64.58
2023-03-11T13:01:26.190Z,64.01
2023-03-11T13:04:04.737Z,62.27
2023-03-11T13:06:58.558Z,61.46
2023-03-11T13:09:31.435Z,64.35
2023-03-11T13:12:02.423Z,64.69
2023-03-11T13:14:34.039Z,64.56
2023-03-11T13:17:26.803Z,63.54
2023-03-11T13:19:59.370Z,64.28
2023-03-11T13:23:13.591Z,63.10
2023-03-11T13:26:02.608Z,63.07
2023-03-11T13:28:52.734Z,63.29
2023-03-11T13:31:37.112Z,63.38
2023-03-11T13:34:16.170Z,62.52
2023-03-11T13:37:05.119Z,60.94
2023-03-11T13:39:53.272Z,62.87
2023-03-11T13:42:30.182Z,60.13
2023-03-11T13:45:02.025Z,61.26
2023-03-11T13:47:35.472Z,61.91
2023-03-11T13:50:17.568Z,62.35
2023-03-11T13:52:52.452Z,63.24
2023-03-11T13:55:28.415Z,63.27
2023-03-11T13:57:59.308Z,62.94
2023-03-11T14:00:38.400Z,62.89
2023-03-11T14:03:14.841Z,62.74
2023-03-11T14:05:48.060Z,63.21
2023-03-11T14:08:23.939Z,62.60
2023-03-11T14:10:56.603Z,63.57
2023-03-11T14:13:28.661Z,64.22
2023-03-11T14:16:07.885Z,63.70
2023-03-11T14:18:41.114Z,63.58
2023-03-11T14:21:16.491Z,63.72
2023-03-11T14:23:49.782Z,64.23
2023-03-11T14:26:23.089Z,64.78
2023-03-11T14:28:55.081Z,64.83
2023-03-11T14:31:31.890Z,63.56
2023-03-11T14:34:04.098Z,64.13
2023-03-11T14:36:43.704Z,63.48
2023-03-11T14:39:29.399Z,63.50
2023-03-11T14:42:06.808Z,63.25
2023-03-11T14:44:42.040Z,63.91
2023-03-11T14:47:18.834Z,63.35
2023-03-11T14:49:51.810Z,63.73
2023-03-11T14:52:31.231Z,63.29
2023-03-11T14:55:05.646Z,63.64
2023-03-11T14:57:40.404Z,63.48
2023-03-11T15:00:18.037Z,63.39
2023-03-11T15:02:59.743Z,63.22
2023-03-11T15:05:39.437Z,63.57
2023-03-11T15:08:11.126Z,64.59
2023-03-11T15:11:02.964Z,63.59
2023-03-11T15:13:34.383Z,63.97
2023-03-11T15:16:04.741Z,63.55
2023-03-11T15:18:38.270Z,64.39
2023-03-11T15:21:15.772Z,65.15
2023-03-11T15:23:51.388Z,65.25
2023-03-11T15:26:25.462Z,65.53
2023-03-11T15:28:58.772Z,64.99
2023-03-11T15:31:34.795Z,63.54
2023-03-11T15:34:25.544Z,64.43
2023-03-11T15:37:04.873Z,63.61
2023-03-11T15:39:47.156Z,63.69
2023-03-11T15:42:20.682Z,63.72
2023-03-11T15:45:03.035Z,62.41
2023-03-11T15:47:33.661Z,63.03
2023-03-11T15:50:43.053Z,63.40
2023-03-11T15:53:21.472Z,63.20
2023-03-11T15:55:53.087Z,63.56
2023-03-11T15:58:23.895Z,62.21
2023-03-11T16:01:00.066Z,63.43
2023-03-11T16:03:31.549Z,64.18
2023-03-11T16:06:02.434Z,63.93
2023-03-11T16:08:33.168Z,64.22
2023-03-11T16:11:04.157Z,64.82
2023-03-11T16:13:34.793Z,64.77
2023-03-11T16:16:06.230Z,64.81
2023-03-11T16:18:36.980Z,64.48
2023-03-11T16:21:13.612Z,64.74
2023-03-11T16:23:51.547Z,64.79
2023-03-11T16:26:23.807Z,65.04
2023-03-11T16:28:54.537Z,64.95
2023-03-11T16:31:25.240Z,65.33
2023-03-11T16:33:55.880Z,65.54
2023-03-11T16:36:26.716Z,65.78
2023-03-11T16:38:57.373Z,66.08
2023-03-11T16:41:28.193Z,66.43
2023-03-11T16:43:58.752Z,66.65
2023-03-11T16:46:29.453Z,66.71
2023-03-11T16:49:00.173Z,66.93
2023-03-11T16:51:30.886Z,67.11
2023-03-11T16:54:01.707Z,67.20
2023-03-11T16:56:32.420Z,67.36
2023-03-11T16:59:03.085Z,67.49
2023-03-11T17:01:33.839Z,67.60
2023-03-11T17:04:04.840Z,67.85
2023-03-11T17:06:35.525Z,67.94
2023-03-11T17:09:06.152Z,67.97
2023-03-11T17:11:37.228Z,68.26
2023-03-11T17:14:15.906Z,68.30
2023-03-11T17:16:47.271Z,68.47
2023-03-11T17:19:17.833Z,68.61
2023-03-11T17:21:48.528Z,68.65
2023-03-11T17:24:19.381Z,68.70
2023-03-11T17:26:50.113Z,68.84
2023-03-11T17:29:20.755Z,68.92
2023-03-11T17:31:51.607Z,69.23
2023-03-11T17:34:21.428Z,69.27
2023-03-11T17:36:52.135Z,69.27
2023-03-11T17:39:22.819Z,69.38
2023-03-11T17:41:53.545Z,69.59
2023-03-11T17:44:24.335Z,69.66
2023-03-11T17:46:55.128Z,69.61
2023-03-11T17:49:26.235Z,69.83
2023-03-11T17:51:55.323Z,69.90
2023-03-11T17:54:26.008Z,69.94
2023-03-11T17:56:57.299Z,70.06
2023-03-11T17:59:27.978Z,70.38
2023-03-11T18:02:00.460Z,70.39
2023-03-11T18:04:31.304Z,70.50
2023-03-11T18:07:02.014Z,70.49
2023-03-11T18:09:32.841Z,70.73
2023-03-11T18:12:04.345Z,70.72
2023-03-11T18:14:35.808Z,70.62
2023-03-11T18:17:06.692Z,70.74
2023-03-11T18:19:37.773Z,70.65
2023-03-11T18:22:08.516Z,70.75
2023-03-11T18:24:39.183Z,71.19
2023-03-11T18:27:10.019Z,71.11
2023-03-11T18:29:41.014Z,71.17
2023-03-11T18:32:11.944Z,71.51
2023-03-11T18:34:42.602Z,71.55
2023-03-11T18:37:13.222Z,71.66
2023-03-11T18:39:43.808Z,71.49
2023-03-11T18:42:14.740Z,71.56
2023-03-11T18:44:45.450Z,71.63
2023-03-11T18:47:16.418Z,71.62
2023-03-11T18:49:47.355Z,71.50
2023-03-11T18:52:18.020Z,71.36
2023-03-11T18:54:48.676Z,71.72
2023-03-11T18:57:19.435Z,71.41
2023-03-11T18:59:48.929Z,71.57
2023-03-11T19:02:19.642Z,71.41
2023-03-11T19:04:50.479Z,71.50
2023-03-11T19:07:21.325Z,71.40
2023-03-11T19:09:51.970Z,71.55
2023-03-11T19:12:22.661Z,71.60
2023-03-11T19:14:53.340Z,71.65
2023-03-11T19:17:24.889Z,71.84
2023-03-11T19:19:56.209Z,71.81
2023-03-11T19:22:27.042Z,71.66
2023-03-11T19:24:57.676Z,71.72
2023-03-11T19:27:28.324Z,71.71
2023-03-11T19:29:59.474Z,71.90
2023-03-11T19:32:30.183Z,71.90
2023-03-11T19:35:00.793Z,71.79
2023-03-11T19:37:33.039Z,71.72
2023-03-11T19:40:03.986Z,71.88
2023-03-11T19:42:36.398Z,71.73
2023-03-11T19:45:09.813Z,71.82
2023-03-11T19:47:40.856Z,71.66
2023-03-11T19:50:12.656Z,71.56
2023-03-11T19:52:43.350Z,71.60
2023-03-11T19:55:14.509Z,71.49
2023-03-11T19:57:45.303Z,71.51
2023-03-11T20:00:16.802Z,71.40
2023-03-11T20:02:47.549Z,71.42
2023-03-11T20:05:18.356Z,71.31
2023-03-11T20:07:49.176Z,71.35
2023-03-11T20:10:20.524Z,71.30
2023-03-11T20:13:01.706Z,71.36
2023-03-11T20:15:33.706Z,71.37
2023-03-11T20:18:02.902Z,71.23
2023-03-11T20:20:37.164Z,71.41
2023-03-11T20:23:07.958Z,71.27
2023-03-11T20:25:41.084Z,71.29
2023-03-11T20:28:11.970Z,71.42
2023-03-11T20:30:42.676Z,71.37
2023-03-11T20:33:13.392Z,71.27
2023-03-11T20:35:44.084Z,71.26
2023-03-11T20:38:14.948Z,71.32
2023-03-11T20:40:55.144Z,71.37
2023-03-11T20:43:25.963Z,71.31
2023-03-11T20:45:57.555Z,71.32
2023-03-11T20:48:28.819Z,71.32
2023-03-11T20:51:02.162Z,71.61
2023-03-11T20:53:33.358Z,71.66
2023-03-11T20:56:09.609Z,71.48
2023-03-11T20:58:40.820Z,71.61
2023-03-11T21:01:16.774Z,71.66
2023-03-11T21:03:50.085Z,71.56
2023-03-11T21:06:23.220Z,71.56
2023-03-11T21:08:54.971Z,71.43
2023-03-11T21:11:26.631Z,71.50
2023-03-11T21:13:57.326Z,71.64
2023-03-11T21:16:28.548Z,71.39
2023-03-11T21:18:59.330Z,71.47
2023-03-11T21:21:30.058Z,71.48
2023-03-11T21:24:00.896Z,71.42
2023-03-11T21:26:31.737Z,71.46
2023-03-11T21:29:02.925Z,71.62
2023-03-11T21:31:34.404Z,71.62
2023-03-11T21:34:05.200Z,71.67
2023-03-11T21:36:36.090Z,71.67
2023-03-11T21:39:07.071Z,71.74
2023-03-11T21:41:37.744Z,71.69
2023-03-11T21:44:08.642Z,72.06
2023-03-11T21:46:39.665Z,71.92
2023-03-11T21:49:10.443Z,72.08
2023-03-11T21:51:41.198Z,71.92
2023-03-11T21:54:11.872Z,71.94
2023-03-11T21:56:42.727Z,72.16
2023-03-11T21:59:13.422Z,72.05
2023-03-11T22:01:44.175Z,72.22
2023-03-11T22:04:15.160Z,72.09
2023-03-11T22:06:45.891Z,72.30
2023-03-11T22:09:16.685Z,72.30
2023-03-11T22:11:48.617Z,72.26
2023-03-11T22:14:19.395Z,72.33
2023-03-11T22:16:50.504Z,72.37
2023-03-11T22:19:19.816Z,72.34
2023-03-11T22:21:50.623Z,72.42
2023-03-11T22:24:21.498Z,72.39
2023-03-11T22:26:52.180Z,72.47
2023-03-11T22:29:22.879Z,72.58
2023-03-11T22:31:53.700Z,72.65
2023-03-11T22:34:24.402Z,72.62
2023-03-11T22:36:55.007Z,72.55
2023-03-11T22:39:25.721Z,72.61
2023-03-11T22:41:56.368Z,72.75
2023-03-11T22:44:27.209Z,72.65
2023-03-11T22:46:57.883Z,72.61
2023-03-11T22:49:28.653Z,72.83
2023-03-11T22:51:59.418Z,73.01
2023-03-11T22:54:30.161Z,72.89
2023-03-11T22:57:00.773Z,73.09
2023-03-11T22:59:31.484Z,73.06
2023-03-11T23:02:02.214Z,73.08
2023-03-11T23:04:32.892Z,73.10
2023-03-11T23:07:03.503Z,73.24
2023-03-11T23:09:34.236Z,73.20
2023-03-11T23:12:07.666Z,73.31
2023-03-11T23:14:45.029Z,73.27
2023-03-11T23:17:15.942Z,73.26
2023-03-11T23:19:46.621Z,73.46
2023-03-11T23:22:17.244Z,73.34
2023-03-11T23:24:48.014Z,73.41
2023-03-11T23:27:18.650Z,73.43
2023-03-11T23:29:49.325Z,73.45
2023-03-11T23:32:20.019Z,73.86
2023-03-11T23:34:50.730Z,73.62
2023-03-11T23:37:21.435Z,73.68
2023-03-11T23:39:52.240Z,73.74
2023-03-11T23:42:26.239Z,73.66
2023-03-11T23:44:57.552Z,73.50
2023-03-11T23:47:26.818Z,73.65
2023-03-11T23:49:57.545Z,73.63
2023-03-11T23:52:28.193Z,73.79
2023-03-11T23:54:58.826Z,73.58
2023-03-11T23:57:29.480Z,73.59
